»·PEaware :: UAL515 KSEA-KPDX

UAL515 :: KSEA-KPDX

FLIGHT INFORMATION

Flight Status: Arrived
Operator:
United Airlines
More flights by this operator :: More flights under this callsign
Pilot: Doug L. (8712)
Aircraft: BOEING 717-200
(B712)
More flights by this aircraft type
Origin: KSEA Seattle-Tacoma Intl
United States
Destination: KPDX Portland Intl
United States
More flights between these airports :: More routes between these airports
Route: +SEA7 BUWZO KRATR2
File this flight plan on PilotEdge
Remarks:
Altitude:
(Current/Filed)
17,000ft
Speed:
(Current/Filed)
425kts
Departed: 06-Jan-19 10:03 AM
Arrived: 06-Jan-19 10:35 AM
Distance/Time
Traveled:
112nm/0:32
Distance/Time
To Go:
Arrived

Flight Plot

Page will automatically refresh every two minutes.

Flight plan parsing failed; only flown route is shown


Map Options




Map Legend


Flown Route
Filed Route
Departure Airport
Arrival Airport
Navaid (VOR, NDB)
Fix

Horizontal Profiles

Position Reports

Time Latitude Longitude Heading Altitude Ground
Speed
06-Jan-19 09:43 47.441201 -122.300871 45 441ft 0kts
06-Jan-19 09:44 47.441201 -122.300871 45 441ft 0kts
06-Jan-19 09:45 47.441201 -122.300871 45 441ft 0kts
06-Jan-19 09:46 47.441201 -122.300871 45 441ft 0kts
06-Jan-19 09:47 47.441201 -122.300871 45 441ft 0kts
06-Jan-19 09:48 47.441201 -122.300871 45 441ft 0kts
06-Jan-19 09:49 47.441201 -122.300871 45 441ft 0kts
06-Jan-19 09:50 47.441122 -122.300992 45 441ft 2kts
06-Jan-19 09:51 47.440618 -122.301513 0 441ft 2kts
06-Jan-19 09:52 47.440574 -122.301034 264 441ft 1kts
06-Jan-19 09:53 47.440574 -122.301033 264 441ft 0kts
06-Jan-19 09:54 47.440574 -122.301034 264 441ft 0kts
06-Jan-19 09:55 47.440574 -122.301035 264 441ft 0kts
06-Jan-19 09:56 47.440008 -122.303348 247 441ft 9kts
06-Jan-19 09:57 47.441412 -122.306342 0 441ft 24kts
06-Jan-19 09:58 47.448578 -122.306272 0 441ft 26kts
06-Jan-19 09:59 47.455366 -122.306188 0 441ft 24kts
06-Jan-19 10:00 47.462110 -122.306155 0 441ft 20kts
06-Jan-19 10:01 47.463810 -122.307230 235 441ft 7kts
06-Jan-19 10:02 47.452612 -122.307892 180 444ft 147kts
06-Jan-19 10:03 47.405196 -122.308753 182 3444ft 179kts
06-Jan-19 10:04 47.341754 -122.309378 182 5597ft 249kts
06-Jan-19 10:05 47.269114 -122.309440 183 9569ft 272kts
06-Jan-19 10:06 47.192491 -122.309477 185 13537ft 281kts
06-Jan-19 10:07 47.107273 -122.309619 184 15744ft 337kts
06-Jan-19 10:08 47.008216 -122.309668 184 17030ft 383kts
06-Jan-19 10:09 46.900048 -122.309609 184 17037ft 389kts
06-Jan-19 10:10 46.791858 -122.309614 184 17038ft 385kts
06-Jan-19 10:11 46.685020 -122.309606 184 17040ft 382kts
06-Jan-19 10:12 46.578284 -122.309626 184 16506ft 387kts
06-Jan-19 10:13 46.474373 -122.309567 184 14710ft 356kts
06-Jan-19 10:14 46.377406 -122.309607 184 13213ft 346kts
06-Jan-19 10:15 46.281579 -122.309773 185 12211ft 341kts
06-Jan-19 10:16 46.192033 -122.345786 203 11213ft 334kts
06-Jan-19 10:17 46.105464 -122.394061 202 10208ft 323kts
06-Jan-19 10:18 46.025170 -122.437639 201 8908ft 299kts
06-Jan-19 10:19 45.947853 -122.478678 197 7504ft 293kts
06-Jan-19 10:20 45.867178 -122.468208 169 6150ft 290kts
06-Jan-19 10:21 45.793733 -122.444752 169 5987ft 243kts
06-Jan-19 10:22 45.733014 -122.425526 170 5999ft 216kts
06-Jan-19 10:23 45.674182 -122.406931 170 6002ft 216kts
06-Jan-19 10:24 45.617175 -122.380473 141 5969ft 221kts
06-Jan-19 10:25 45.578536 -122.310151 128 6006ft 226kts
06-Jan-19 10:26 45.542028 -122.236627 128 5234ft 227kts
06-Jan-19 10:27 45.492131 -122.207496 203 4221ft 209kts
06-Jan-19 10:28 45.456714 -122.260136 281 3726ft 205kts
06-Jan-19 10:29 45.489237 -122.327778 300 3505ft 207kts
06-Jan-19 10:31 45.515881 -122.393391 297 2732ft 185kts
06-Jan-19 10:32 45.538870 -122.452294 298 1858ft 157kts
06-Jan-19 10:33 45.560141 -122.506757 299 1034ft 156kts
06-Jan-19 10:34 45.581503 -122.561541 296 186ft 154kts
06-Jan-19 10:35 45.594794 -122.595781 295 38ft 19kts
06-Jan-19 10:36 45.594422 -122.597239 222 38ft 1kts
06-Jan-19 10:37 45.592471 -122.595028 119 38ft 14kts
06-Jan-19 10:38 45.591256 -122.592542 197 38ft 7kts
06-Jan-19 10:39 45.590809 -122.593089 239 38ft 0kts
06-Jan-19 10:42 45.590809 -122.593089 239 38ft 0kts

Navigation Log

Ident Type
Flight plan parsing failed, navigation log unavailable